Time;durP1;ratioP1;P1;durP2;ratioP2;P2;SDS_P1;SDS_P2;PMS_P1;PMS_P2;Temp;Humidity;BMP_temperature;BMP_pressure;BME280_temperature;BME280_humidity;BME280_pressure;Samples;Min_cycle;Max_cycle;Signal;HPM_P1;HPM_P2
2023/04/23 00:00:22;;;;;;;12.40;7.20;;;14.70;51.60;;;;;;5180130;28;20446;-45
2023/04/23 00:02:54;;;;;;;10.70;7.67;;;14.70;51.90;;;;;;5185560;28;20239;-45
2023/04/23 00:05:26;;;;;;;10.33;7.30;;;14.70;52.00;;;;;;5185738;28;20458;-46
2023/04/23 00:07:59;;;;;;;10.30;7.50;;;14.60;52.00;;;;;;5181253;28;20459;-45
2023/04/23 00:10:31;;;;;;;11.00;7.70;;;14.60;52.20;;;;;;5185566;28;20467;-45
2023/04/23 00:13:03;;;;;;;14.37;7.60;;;14.60;52.20;;;;;;5179855;28;20477;-45
2023/04/23 00:15:34;;;;;;;10.13;7.50;;;14.60;52.30;;;;;;5181993;28;20493;-47
2023/04/23 00:18:04;;;;;;;8.17;6.90;;;14.50;52.60;;;;;;5184011;28;20886;-46
2023/04/23 00:20:35;;;;;;;7.50;6.53;;;14.50;52.60;;;;;;5190259;28;20521;-45
2023/04/23 00:23:06;;;;;;;8.50;6.50;;;14.50;53.40;;;;;;5175029;28;20181;-45
2023/04/23 00:25:37;;;;;;;11.53;7.20;;;14.50;52.90;;;;;;5175618;28;20998;-44
2023/04/23 00:28:07;;;;;;;10.13;6.90;;;14.60;52.80;;;;;;5183664;28;20206;-46
2023/04/23 00:30:38;;;;;;;9.63;6.57;;;14.60;52.90;;;;;;5180705;28;20184;-44
2023/04/23 00:33:09;;;;;;;7.30;6.60;;;14.60;52.80;;;;;;5182632;28;20185;-45
2023/04/23 00:35:40;;;;;;;10.17;7.20;;;14.60;52.80;;;;;;5183264;28;20240;-45
2023/04/23 00:38:10;;;;;;;9.23;6.80;;;14.70;53.10;;;;;;5159692;28;20215;-44
2023/04/23 00:40:41;;;;;;;10.63;6.90;;;14.70;53.50;;;;;;5178372;28;20192;-47
2023/04/23 00:43:12;;;;;;;11.17;8.07;;;14.80;52.90;;;;;;5184470;28;20602;-47
2023/04/23 00:45:43;;;;;;;8.67;7.20;;;14.80;52.90;;;;;;5176421;28;20676;-45
2023/04/23 00:48:14;;;;;;;16.60;7.43;;;14.80;53.00;;;;;;5175634;28;20452;-46
2023/04/23 00:50:45;;;;;;;8.60;7.13;;;14.90;53.20;;;;;;5178056;28;20280;-44
2023/04/23 00:53:16;;;;;;;9.77;6.50;;;14.80;53.10;;;;;;5174332;28;20539;-44
2023/04/23 00:55:46;;;;;;;7.70;6.93;;;14.80;53.20;;;;;;5180950;28;20454;-44
2023/04/23 00:58:17;;;;;;;13.20;7.77;;;15.00;53.30;;;;;;5181386;28;20207;-45
2023/04/23 01:00:50;;;;;;;10.70;7.10;;;14.90;53.20;;;;;;5181377;28;20510;-44
2023/04/23 01:03:23;;;;;;;11.53;8.20;;;14.90;53.50;;;;;;5182527;28;20554;-44
2023/04/23 01:05:53;;;;;;;7.63;6.90;;;14.80;53.50;;;;;;5178996;28;20477;-45
2023/04/23 01:08:25;;;;;;;12.17;8.17;;;14.80;54.30;;;;;;5196457;28;20788;-44
2023/04/23 01:10:56;;;;;;;15.17;8.00;;;14.80;53.90;;;;;;5180116;28;20179;-45
2023/04/23 01:13:28;;;;;;;10.70;7.70;;;14.90;54.20;;;;;;5186006;28;20522;-44
2023/04/23 01:15:59;;;;;;;9.10;7.13;;;14.80;54.00;;;;;;5183101;28;20470;-45
2023/04/23 01:18:30;;;;;;;12.70;9.03;;;14.80;54.40;;;;;;5185139;28;20523;-44
2023/04/23 01:21:01;;;;;;;10.20;7.30;;;15.00;54.10;;;;;;5182278;28;20854;-44
2023/04/23 01:23:32;;;;;;;13.27;7.63;;;14.90;54.40;;;;;;5183810;28;20252;-46
2023/04/23 01:26:02;;;;;;;12.87;8.33;;;15.00;54.20;;;;;;5178355;28;20471;-44
2023/04/23 01:28:33;;;;;;;11.27;8.57;;;15.00;54.20;;;;;;5178958;28;20912;-44
2023/04/23 01:31:04;;;;;;;15.00;8.80;;;15.10;54.10;;;;;;5181227;28;20176;-45
2023/04/23 01:33:35;;;;;;;8.93;6.70;;;15.10;54.40;;;;;;5179494;28;20466;-46
2023/04/23 01:36:07;;;;;;;9.50;7.27;;;15.00;54.70;;;;;;5194880;28;20254;-44
2023/04/23 01:38:38;;;;;;;12.27;8.87;;;15.00;54.90;;;;;;5179149;28;20234;-45
2023/04/23 01:41:09;;;;;;;9.13;7.30;;;15.10;55.30;;;;;;5176590;28;20448;-45
2023/04/23 01:43:42;;;;;;;11.00;7.60;;;15.00;55.50;;;;;;5177204;28;20436;-44
2023/04/23 01:46:12;;;;;;;9.57;7.40;;;14.90;55.70;;;;;;5181959;28;20641;-44
2023/04/23 01:48:43;;;;;;;9.40;7.50;;;15.10;56.00;;;;;;5184008;28;20501;-45
2023/04/23 01:51:14;;;;;;;9.07;8.07;;;15.20;55.80;;;;;;5181419;28;20188;-44
2023/04/23 01:53:44;;;;;;;8.70;7.77;;;15.20;56.50;;;;;;5180706;28;20506;-45
2023/04/23 01:56:18;;;;;;;11.90;7.20;;;15.20;56.50;;;;;;5178214;28;20176;-45
2023/04/23 01:58:50;;;;;;;16.83;7.17;;;15.10;57.10;;;;;;5180428;28;20204;-44
2023/04/23 02:01:21;;;;;;;18.40;7.33;;;15.00;57.80;;;;;;5179842;28;20435;-46
2023/04/23 02:03:53;;;;;;;8.83;6.60;;;15.00;58.70;;;;;;5184400;28;20455;-45
2023/04/23 02:06:23;;;;;;;8.20;6.23;;;14.90;60.30;;;;;;5182056;28;20204;-45
2023/04/23 02:08:54;;;;;;;10.80;6.97;;;14.80;62.20;;;;;;5173478;28;20474;-46
2023/04/23 02:11:24;;;;;;;7.73;6.70;;;14.80;66.40;;;;;;5178210;28;20247;-45
2023/04/23 02:13:55;;;;;;;9.93;8.03;;;14.60;71.00;;;;;;5176666;28;20619;-45
2023/04/23 02:16:27;;;;;;;8.40;6.90;;;14.40;78.00;;;;;;5173544;28;20199;-45
2023/04/23 02:18:58;;;;;;;11.30;8.50;;;14.30;84.30;;;;;;5183049;28;20288;-44
2023/04/23 02:21:28;;;;;;;11.13;7.47;;;14.10;92.90;;;;;;5173898;28;21004;-45
2023/04/23 02:23:59;;;;;;;13.53;8.30;;;14.20;99.90;;;;;;5176970;28;20262;-45
2023/04/23 02:26:30;;;;;;;11.93;8.50;;;13.70;99.90;;;;;;5164520;28;20224;-44
2023/04/23 02:29:00;;;;;;;12.97;8.47;;;13.40;99.90;;;;;;5178614;28;20196;-45
2023/04/23 02:31:31;;;;;;;8.73;7.80;;;13.10;99.90;;;;;;5176765;28;20185;-45
2023/04/23 02:34:02;;;;;;;10.90;8.80;;;12.90;99.90;;;;;;5182254;28;20563;-46
2023/04/23 02:36:32;;;;;;;12.27;9.37;;;12.80;99.90;;;;;;5182147;28;20199;-44
2023/04/23 02:39:03;;;;;;;12.57;8.57;;;12.70;99.90;;;;;;5177820;28;20251;-44
2023/04/23 02:41:33;;;;;;;8.70;7.83;;;12.50;99.90;;;;;;5176308;28;20189;-44
2023/04/23 02:44:04;;;;;;;14.93;9.90;;;12.50;99.90;;;;;;5180945;28;20546;-43
2023/04/23 02:46:36;;;;;;;15.97;10.87;;;12.50;99.90;;;;;;5182516;28;20282;-46
2023/04/23 02:49:07;;;;;;;15.27;11.53;;;12.40;99.90;;;;;;5184224;28;20188;-46
2023/04/23 02:51:38;;;;;;;18.23;11.30;;;12.30;99.90;;;;;;5182376;28;20500;-44
2023/04/23 02:54:08;;;;;;;15.23;10.57;;;12.30;99.90;;;;;;5182056;28;20195;-45
2023/04/23 02:56:39;;;;;;;18.83;11.30;;;12.20;99.90;;;;;;5176612;28;20439;-43
2023/04/23 02:59:10;;;;;;;16.83;10.23;;;12.20;99.90;;;;;;5182487;28;20250;-43
2023/04/23 03:01:40;;;;;;;13.70;10.50;;;12.20;99.90;;;;;;5187438;28;20435;-45
2023/04/23 03:04:11;;;;;;;10.90;9.40;;;12.20;99.90;;;;;;5186813;28;20271;-44
2023/04/23 03:06:42;;;;;;;12.63;9.27;;;12.30;99.90;;;;;;5182358;28;20214;-44
2023/04/23 03:09:12;;;;;;;16.37;8.60;;;12.30;99.90;;;;;;5181842;28;20578;-43
2023/04/23 03:11:43;;;;;;;10.60;9.37;;;12.40;99.90;;;;;;5185435;28;20188;-44
2023/04/23 03:14:14;;;;;;;11.17;9.20;;;12.50;99.90;;;;;;5181974;28;20184;-43
2023/04/23 03:16:45;;;;;;;9.10;7.70;;;12.50;99.90;;;;;;5183013;28;20192;-43
2023/04/23 03:19:16;;;;;;;9.53;8.63;;;12.60;99.90;;;;;;5184752;28;20451;-47
2023/04/23 03:21:46;;;;;;;10.00;7.60;;;12.60;99.90;;;;;;5182972;28;20196;-43
2023/04/23 03:24:17;;;;;;;12.00;8.33;;;12.70;99.90;;;;;;5177706;28;20176;-45
2023/04/23 03:26:48;;;;;;;14.13;8.53;;;12.70;99.90;;;;;;5177119;28;20226;-44
2023/04/23 03:29:18;;;;;;;8.93;8.03;;;12.70;99.90;;;;;;5174897;28;20763;-43
2023/04/23 03:31:49;;;;;;;11.30;8.57;;;12.80;99.90;;;;;;5174532;28;20184;-43
2023/04/23 03:34:19;;;;;;;10.50;8.33;;;12.80;99.90;;;;;;5180263;28;20300;-46
2023/04/23 03:36:50;;;;;;;9.97;7.60;;;13.00;99.90;;;;;;5181524;28;20245;-44
2023/04/23 03:39:21;;;;;;;10.30;7.97;;;13.10;99.90;;;;;;5177399;28;21670;-45
2023/04/23 03:41:51;;;;;;;10.07;9.00;;;13.20;99.90;;;;;;5177745;28;20300;-44
2023/04/23 03:44:22;;;;;;;9.33;8.00;;;13.00;99.90;;;;;;5187346;28;20192;-44
2023/04/23 03:46:52;;;;;;;14.73;8.40;;;13.00;99.90;;;;;;5185812;28;20586;-44
2023/04/23 03:49:25;;;;;;;11.23;7.27;;;13.00;99.90;;;;;;5203816;28;20202;-45
2023/04/23 03:51:55;;;;;;;7.87;7.07;;;13.20;99.90;;;;;;5184515;28;20177;-44
2023/04/23 03:54:27;;;;;;;8.80;6.70;;;13.50;99.90;;;;;;5178023;28;20935;-44
2023/04/23 03:56:58;;;;;;;11.10;6.83;;;13.50;99.90;;;;;;5184625;28;20184;-44
2023/04/23 03:59:28;;;;;;;16.13;7.53;;;13.60;99.90;;;;;;5182646;28;20475;-43
2023/04/23 04:01:59;;;;;;;9.83;7.10;;;13.60;99.90;;;;;;5168385;28;20435;-44
2023/04/23 04:04:30;;;;;;;11.40;7.50;;;13.70;99.90;;;;;;5177568;28;20189;-44
2023/04/23 04:07:01;;;;;;;8.20;7.40;;;13.80;99.90;;;;;;5187656;28;20292;-44
2023/04/23 04:09:31;;;;;;;6.70;6.10;;;13.80;99.90;;;;;;5175868;28;20553;-44
2023/04/23 04:12:04;;;;;;;8.03;7.23;;;13.80;99.90;;;;;;5184304;28;20685;-45
2023/04/23 04:14:34;;;;;;;8.20;7.40;;;13.70;99.90;;;;;;5181287;28;20498;-45
2023/04/23 04:17:05;;;;;;;6.90;6.20;;;13.60;99.90;;;;;;5178378;28;20535;-45
2023/04/23 04:19:36;;;;;;;11.50;8.00;;;13.50;99.90;;;;;;5182923;28;20204;-43
2023/04/23 04:22:06;;;;;;;7.73;7.03;;;13.50;99.90;;;;;;5186450;28;20211;-44
2023/04/23 04:24:37;;;;;;;9.63;7.57;;;13.40;99.90;;;;;;5183646;28;20199;-44
2023/04/23 04:27:08;;;;;;;7.63;6.90;;;13.40;99.90;;;;;;5169554;28;20235;-45
2023/04/23 04:29:39;;;;;;;9.30;6.10;;;13.40;99.90;;;;;;5187086;28;20194;-45
2023/04/23 04:32:10;;;;;;;6.73;6.30;;;13.40;99.90;;;;;;5183677;28;20475;-44
2023/04/23 04:34:41;;;;;;;7.33;6.63;;;13.40;99.90;;;;;;5181083;28;21034;-44
2023/04/23 04:37:12;;;;;;;8.13;6.37;;;13.40;99.90;;;;;;5184499;28;20180;-44
2023/04/23 04:39:42;;;;;;;10.10;5.90;;;13.50;99.90;;;;;;5180360;28;20909;-44
2023/04/23 04:42:14;;;;;;;6.93;6.30;;;13.60;99.90;;;;;;5182755;28;20279;-44
2023/04/23 04:44:45;;;;;;;6.33;5.73;;;13.70;99.90;;;;;;5181271;28;20555;-44
2023/04/23 04:47:15;;;;;;;6.50;5.90;;;13.80;99.90;;;;;;5180964;28;20490;-43
2023/04/23 04:49:47;;;;;;;6.13;5.50;;;13.90;99.90;;;;;;5176345;28;20263;-45
2023/04/23 04:52:18;;;;;;;9.13;5.63;;;14.10;99.90;;;;;;5177894;28;20633;-45
2023/04/23 04:54:49;;;;;;;7.13;5.70;;;14.20;99.90;;;;;;5176153;28;20956;-44
2023/04/23 04:57:21;;;;;;;5.87;5.37;;;14.50;99.90;;;;;;5174239;28;20455;-44
2023/04/23 04:59:52;;;;;;;5.30;5.00;;;14.70;99.90;;;;;;5183888;28;20192;-44
2023/04/23 05:02:23;;;;;;;6.03;5.50;;;14.90;99.90;;;;;;5179524;28;20447;-45
2023/04/23 05:04:54;;;;;;;7.43;4.80;;;15.00;99.90;;;;;;5173480;28;20527;-44
2023/04/23 05:07:24;;;;;;;5.10;4.67;;;15.10;99.90;;;;;;5184864;28;20217;-44
2023/04/23 05:09:55;;;;;;;5.10;4.67;;;15.10;99.90;;;;;;5181066;28;20549;-43
2023/04/23 05:12:25;;;;;;;8.60;4.90;;;15.10;99.90;;;;;;5187463;28;20267;-44
2023/04/23 05:14:56;;;;;;;7.90;5.40;;;15.20;99.90;;;;;;5182593;28;20335;-44
2023/04/23 05:17:27;;;;;;;9.27;5.93;;;15.40;99.90;;;;;;5185503;28;20263;-44
2023/04/23 05:19:57;;;;;;;5.97;5.10;;;15.40;99.90;;;;;;5188414;28;20271;-45
2023/04/23 05:22:28;;;;;;;8.77;6.27;;;15.60;99.90;;;;;;5202421;28;20180;-43
2023/04/23 05:24:59;;;;;;;6.30;5.30;;;15.70;99.90;;;;;;5183790;28;20227;-44
2023/04/23 05:27:30;;;;;;;5.40;4.73;;;15.90;99.90;;;;;;5183528;28;20470;-43
2023/04/23 05:30:07;;;;;;;9.37;4.90;;;16.50;99.90;;;;;;5184295;28;20224;-44
2023/04/23 05:32:39;;;;;;;4.20;3.90;;;16.90;99.90;;;;;;5184955;28;20164;-46
2023/04/23 05:35:10;;;;;;;5.37;4.70;;;17.50;99.90;;;;;;5174575;28;20446;-48
2023/04/23 05:37:40;;;;;;;11.23;5.17;;;18.10;99.90;;;;;;5182056;28;21007;-46
2023/04/23 05:40:12;;;;;;;6.07;5.30;;;18.30;99.90;;;;;;5173649;28;20200;-43
2023/04/23 05:42:42;;;;;;;9.57;5.20;;;18.20;99.90;;;;;;5181273;28;20196;-44
2023/04/23 05:45:13;;;;;;;8.67;4.77;;;18.00;99.90;;;;;;5175802;28;20582;-45
2023/04/23 05:47:43;;;;;;;4.73;4.20;;;17.70;99.90;;;;;;5177579;28;20246;-46
2023/04/23 05:50:14;;;;;;;5.17;4.70;;;17.40;99.90;;;;;;5181004;28;20181;-44
2023/04/23 05:52:45;;;;;;;4.27;3.93;;;17.20;99.90;;;;;;5177873;28;20219;-46
2023/04/23 05:55:17;;;;;;;4.63;4.37;;;17.10;99.90;;;;;;5182571;28;20181;-45
2023/04/23 05:57:47;;;;;;;4.13;3.83;;;17.10;99.90;;;;;;5179085;28;20665;-45
2023/04/23 06:00:18;;;;;;;4.30;4.00;;;17.10;99.90;;;;;;5162653;28;20442;-46
2023/04/23 06:02:49;;;;;;;8.00;4.23;;;17.10;99.90;;;;;;5179862;28;20180;-47
2023/04/23 06:05:19;;;;;;;6.63;4.70;;;17.40;99.90;;;;;;5179385;28;20187;-45
2023/04/23 06:07:50;;;;;;;4.30;3.87;;;18.00;99.90;;;;;;5181250;28;20222;-45
2023/04/23 06:10:21;;;;;;;3.90;3.40;;;18.40;99.90;;;;;;5181182;28;20207;-45
2023/04/23 06:12:53;;;;;;;4.03;3.73;;;18.50;99.90;;;;;;5173399;28;20188;-45
2023/04/23 06:15:25;;;;;;;4.03;3.73;;;18.30;99.90;;;;;;5180266;28;20185;-46
2023/04/23 06:17:56;;;;;;;4.70;4.30;;;18.00;99.90;;;;;;5183007;28;20451;-45
2023/04/23 06:20:27;;;;;;;6.73;3.80;;;17.80;99.90;;;;;;5173394;28;20435;-47
2023/04/23 06:22:57;;;;;;;4.37;3.97;;;17.60;99.90;;;;;;5178853;28;20553;-44
2023/04/23 06:25:28;;;;;;;4.23;3.87;;;17.50;99.90;;;;;;5176731;28;20218;-46
2023/04/23 06:27:58;;;;;;;3.23;3.13;;;17.40;99.90;;;;;;5181040;28;20230;-44
2023/04/23 06:30:29;;;;;;;4.50;4.10;;;17.30;99.90;;;;;;5178572;28;20195;-47
2023/04/23 06:33:01;;;;;;;7.50;4.13;;;17.30;99.90;;;;;;5177147;28;20512;-45
2023/04/23 06:35:31;;;;;;;3.83;3.60;;;17.20;99.90;;;;;;5181355;28;20223;-45
2023/04/23 06:38:02;;;;;;;6.50;4.13;;;17.20;99.90;;;;;;5181799;28;20478;-45
2023/04/23 06:40:33;;;;;;;4.27;3.87;;;17.20;99.90;;;;;;5179551;28;20215;-46
2023/04/23 06:43:04;;;;;;;4.50;3.90;;;17.20;99.90;;;;;;5192242;28;20279;-45
2023/04/23 06:45:34;;;;;;;5.53;4.17;;;17.20;99.90;;;;;;5178402;28;20291;-48
2023/04/23 06:48:06;;;;;;;4.77;3.87;;;17.10;99.90;;;;;;5196357;28;20709;-46
2023/04/23 06:50:36;;;;;;;4.63;4.20;;;17.00;99.90;;;;;;5181424;28;20188;-47
2023/04/23 06:53:07;;;;;;;3.70;3.50;;;16.90;99.90;;;;;;5176627;28;20772;-46
2023/04/23 06:55:38;;;;;;;6.33;3.70;;;16.90;99.90;;;;;;5183573;28;20191;-45
2023/04/23 06:58:08;;;;;;;7.27;4.23;;;16.80;99.90;;;;;;5181029;28;20207;-45
2023/04/23 07:00:39;;;;;;;4.03;3.67;;;16.80;99.90;;;;;;5180092;28;20672;-46
2023/04/23 07:03:10;;;;;;;3.93;3.73;;;16.80;99.90;;;;;;5196370;28;20188;-45
2023/04/23 07:05:41;;;;;;;4.53;4.20;;;16.80;99.90;;;;;;5176573;28;20307;-44
2023/04/23 07:08:12;;;;;;;5.00;3.90;;;16.80;99.90;;;;;;5180232;28;20542;-45
2023/04/23 07:10:42;;;;;;;4.97;4.10;;;16.70;99.90;;;;;;5182457;28;20203;-46
2023/04/23 07:13:13;;;;;;;4.43;4.00;;;16.50;99.90;;;;;;5183828;28;20338;-46
2023/04/23 07:15:45;;;;;;;4.07;3.67;;;16.20;99.90;;;;;;5187997;28;20198;-45
2023/04/23 07:18:16;;;;;;;6.60;3.97;;;15.90;99.90;;;;;;5184007;28;20458;-44
2023/04/23 07:20:47;;;;;;;6.10;5.07;;;15.60;99.90;;;;;;5181390;28;20439;-44
2023/04/23 07:23:17;;;;;;;4.40;4.00;;;15.30;99.90;;;;;;5204170;28;20476;-43
2023/04/23 07:25:48;;;;;;;3.80;3.50;;;15.00;99.90;;;;;;5182648;28;20208;-44
2023/04/23 07:28:19;;;;;;;4.60;4.20;;;14.80;99.90;;;;;;5180413;28;20301;-44
2023/04/23 07:30:49;;;;;;;5.17;4.67;;;14.50;99.90;;;;;;5187264;28;20242;-44
2023/04/23 07:33:20;;;;;;;8.37;4.47;;;14.40;99.90;;;;;;5186036;28;20191;-47
2023/04/23 07:35:51;;;;;;;9.17;4.17;;;14.30;99.90;;;;;;5188879;28;21511;-45
2023/04/23 07:38:22;;;;;;;6.10;5.50;;;14.20;99.90;;;;;;5188928;28;20885;-45
2023/04/23 07:40:52;;;;;;;5.50;5.00;;;14.10;99.90;;;;;;5174719;28;20449;-45
2023/04/23 07:43:23;;;;;;;9.17;5.70;;;14.00;99.90;;;;;;5191363;28;20180;-44
2023/04/23 07:45:53;;;;;;;4.67;4.27;;;13.90;99.90;;;;;;5184737;28;20258;-45
2023/04/23 07:48:24;;;;;;;6.73;6.10;;;13.90;99.90;;;;;;5188086;28;20260;-45
2023/04/23 07:50:55;;;;;;;5.77;5.40;;;14.00;99.90;;;;;;5183555;28;20188;-45
2023/04/23 07:53:27;;;;;;;7.93;5.93;;;13.90;99.90;;;;;;5184084;28;20204;-44
2023/04/23 07:55:59;;;;;;;8.03;5.63;;;14.00;99.90;;;;;;5187411;28;20466;-45
2023/04/23 07:58:31;;;;;;;6.80;6.27;;;14.20;99.90;;;;;;5184385;28;20466;-45
2023/04/23 08:01:02;;;;;;;5.93;5.53;;;14.20;99.90;;;;;;5189289;28;20908;-45
2023/04/23 08:03:33;;;;;;;6.13;5.63;;;14.20;99.90;;;;;;5185000;28;20445;-45
2023/04/23 08:06:03;;;;;;;5.83;5.33;;;14.20;99.90;;;;;;5190995;28;20279;-45
2023/04/23 08:08:34;;;;;;;5.50;5.10;;;14.20;99.90;;;;;;5191931;28;20220;-43
2023/04/23 08:11:06;;;;;;;6.97;6.00;;;14.20;99.90;;;;;;5191457;28;20180;-44
2023/04/23 08:13:36;;;;;;;8.63;6.80;;;14.10;99.90;;;;;;5190288;28;21068;-45
2023/04/23 08:16:07;;;;;;;8.03;6.83;;;14.10;99.90;;;;;;5192573;28;20578;-45
2023/04/23 08:18:37;;;;;;;6.80;6.13;;;14.10;99.90;;;;;;5189495;28;20514;-46
2023/04/23 08:21:08;;;;;;;7.50;6.70;;;14.00;99.90;;;;;;5191282;28;20191;-44
2023/04/23 08:23:39;;;;;;;8.10;5.20;;;14.10;99.90;;;;;;5178335;28;20254;-45
2023/04/23 08:26:10;;;;;;;8.93;6.87;;;14.20;99.90;;;;;;5180487;28;20222;-47
2023/04/23 08:28:40;;;;;;;16.13;7.57;;;14.20;99.90;;;;;;5180397;28;20204;-44
2023/04/23 08:31:11;;;;;;;12.77;7.97;;;14.30;99.90;;;;;;5180229;28;20192;-44
2023/04/23 08:33:42;;;;;;;7.93;6.23;;;14.40;99.90;;;;;;5186806;28;20173;-44
2023/04/23 08:36:14;;;;;;;7.20;6.20;;;14.50;99.90;;;;;;5190616;28;20186;-45
2023/04/23 08:38:44;;;;;;;6.57;5.97;;;14.50;99.90;;;;;;5189544;28;20206;-45
2023/04/23 08:41:17;;;;;;;6.93;6.47;;;14.60;99.90;;;;;;5189565;28;20514;-45
2023/04/23 08:44:18;;;;;;;7.20;5.80;;;14.60;99.90;;;;;;5170676;28;20199;-43
2023/04/23 08:46:51;;;;;;;15.63;10.47;;;14.70;99.90;;;;;;5182441;28;20463;-44
2023/04/23 08:49:22;;;;;;;8.10;7.13;;;14.80;99.90;;;;;;5184138;28;20543;-44
2023/04/23 08:51:57;;;;;;;7.80;7.10;;;14.80;99.90;;;;;;5185520;28;20527;-44
2023/04/23 08:54:32;;;;;;;7.40;6.70;;;15.00;99.90;;;;;;5183981;28;20451;-44
2023/04/23 08:57:03;;;;;;;7.53;6.83;;;15.30;99.90;;;;;;5178173;28;20455;-46
2023/04/23 08:59:35;;;;;;;7.20;6.53;;;15.60;99.90;;;;;;5185624;28;20441;-45
2023/04/23 09:02:08;;;;;;;6.60;6.00;;;16.00;99.90;;;;;;5184406;28;20978;-51
2023/04/23 09:04:40;;;;;;;8.33;6.73;;;16.20;99.90;;;;;;5184148;28;21244;-44
2023/04/23 09:07:11;;;;;;;8.37;7.47;;;16.00;99.90;;;;;;5185195;28;21387;-44
2023/04/23 09:09:43;;;;;;;9.07;6.90;;;15.50;99.90;;;;;;5184924;28;20445;-46
2023/04/23 09:12:14;;;;;;;7.90;7.10;;;15.00;99.90;;;;;;5185192;28;21266;-44
2023/04/23 09:14:45;;;;;;;8.13;7.33;;;14.80;99.90;;;;;;5182863;28;20433;-45
2023/04/23 09:17:16;;;;;;;13.33;8.83;;;14.70;99.90;;;;;;5186829;28;20514;-44
2023/04/23 09:19:49;;;;;;;19.90;11.43;;;14.40;99.90;;;;;;5181599;28;20215;-43
2023/04/23 09:22:48;;;;;;;12.50;8.70;;;14.30;99.90;;;;;;5184754;28;20927;-45
2023/04/23 09:25:21;;;;;;;8.00;7.10;;;14.30;99.90;;;;;;5177900;28;20443;-44
2023/04/23 09:27:52;;;;;;;7.93;7.13;;;14.30;99.90;;;;;;5186907;28;20576;-48
2023/04/23 09:30:24;;;;;;;9.80;7.63;;;14.20;99.90;;;;;;5181712;28;20440;-46
2023/04/23 09:32:54;;;;;;;9.90;7.20;;;14.10;99.90;;;;;;5180605;28;20360;-44
2023/04/23 09:35:27;;;;;;;8.00;6.70;;;14.00;99.90;;;;;;5183577;28;20438;-47
2023/04/23 09:37:57;;;;;;;8.93;6.87;;;14.10;99.90;;;;;;5183563;28;20673;-45
2023/04/23 09:40:28;;;;;;;5.37;4.63;;;14.00;99.90;;;;;;5178737;28;20519;-44
2023/04/23 09:43:02;;;;;;;4.30;3.90;;;13.90;99.90;;;;;;5179081;28;20180;-45
2023/04/23 09:45:34;;;;;;;4.23;4.00;;;13.80;99.90;;;;;;5184107;28;20641;-48
2023/04/23 09:48:05;;;;;;;4.50;3.77;;;13.50;99.90;;;;;;5184681;28;20455;-44
2023/04/23 09:50:39;;;;;;;4.00;3.80;;;13.50;99.90;;;;;;5181683;28;20448;-46
2023/04/23 09:53:09;;;;;;;3.47;3.27;;;13.50;99.90;;;;;;5185494;28;20470;-45
2023/04/23 09:55:42;;;;;;;3.30;3.10;;;13.50;99.90;;;;;;5176722;28;20892;-44
2023/04/23 09:58:14;;;;;;;3.47;3.17;;;13.60;99.90;;;;;;5175492;28;20196;-44
2023/04/23 10:00:45;;;;;;;3.00;2.90;;;13.60;99.90;;;;;;5183584;28;20467;-45
2023/04/23 10:03:26;;;;;;;3.83;3.37;;;13.80;99.90;;;;;;5181224;28;20436;-45
2023/04/23 10:05:57;;;;;;;4.60;4.27;;;14.00;99.90;;;;;;5200524;28;20477;-45
2023/04/23 10:08:30;;;;;;;12.00;7.97;;;14.10;99.90;;;;;;5186415;28;20465;-45
2023/04/23 10:11:01;;;;;;;8.30;5.83;;;14.20;99.90;;;;;;5188335;28;20450;-45
2023/04/23 10:13:35;;;;;;;6.10;5.47;;;14.30;99.90;;;;;;5183051;28;21042;-46
2023/04/23 10:16:06;;;;;;;7.23;6.63;;;14.10;99.90;;;;;;5184056;28;20438;-44
2023/04/23 10:18:37;;;;;;;4.77;4.33;;;14.10;99.90;;;;;;5180520;28;20451;-45
2023/04/23 10:21:10;;;;;;;5.97;5.47;;;14.20;99.90;;;;;;5177230;28;20530;-44
2023/04/23 10:23:43;;;;;;;11.57;6.97;;;14.30;99.90;;;;;;5175507;28;21019;-45
2023/04/23 10:26:18;;;;;;;3.07;2.87;;;14.40;99.90;;;;;;5173524;28;20479;-46
2023/04/23 10:28:51;;;;;;;2.37;2.27;;;14.20;99.90;;;;;;5182869;28;20454;-44
2023/04/23 10:31:23;;;;;;;8.50;3.17;;;14.40;99.90;;;;;;5177636;28;20454;-45
2023/04/23 10:33:55;;;;;;;2.53;2.33;;;14.70;99.90;;;;;;5182443;28;20478;-45
2023/04/23 10:36:26;;;;;;;2.73;2.63;;;14.90;99.90;;;;;;5179930;28;20541;-44
2023/04/23 10:39:02;;;;;;;3.17;2.93;;;15.20;99.90;;;;;;5186675;28;20486;-44
2023/04/23 10:41:39;;;;;;;4.20;3.90;;;15.30;99.90;;;;;;5182293;28;21006;-44
2023/04/23 10:44:15;;;;;;;4.53;4.13;;;15.60;99.90;;;;;;5194536;28;20574;-45
2023/04/23 10:46:52;;;;;;;8.20;6.83;;;15.80;99.90;;;;;;5182957;28;20470;-45
2023/04/23 10:49:24;;;;;;;11.53;8.80;;;15.80;99.90;;;;;;5177407;28;20458;-44
2023/04/23 10:51:59;;;;;;;10.47;7.40;;;16.10;99.90;;;;;;5178764;28;20523;-46
2023/04/23 10:54:31;;;;;;;10.20;8.00;;;16.50;99.90;;;;;;5191220;28;20438;-44
2023/04/23 10:57:06;;;;;;;8.13;6.43;;;17.00;99.90;;;;;;5171687;28;20439;-47
2023/04/23 10:59:53;;;;;;;7.30;6.60;;;17.50;99.90;;;;;;5175616;28;20439;-45
2023/04/23 11:02:24;;;;;;;15.60;10.03;;;17.60;99.90;;;;;;5169244;28;20522;-45
2023/04/23 11:05:00;;;;;;;12.47;7.07;;;17.80;99.90;;;;;;5169403;28;20450;-46
2023/04/23 11:07:32;;;;;;;7.23;6.00;;;18.20;99.90;;;;;;5172023;28;20602;-47
2023/04/23 11:10:13;;;;;;;9.90;6.17;;;18.60;99.90;;;;;;5171127;28;20607;-45
2023/04/23 11:12:44;;;;;;;5.67;5.27;;;18.80;99.90;;;;;;5172436;28;20454;-46
2023/04/23 11:15:18;;;;;;;6.87;5.10;;;18.90;99.90;;;;;;5177033;28;20419;-45
2023/04/23 11:17:51;;;;;;;6.10;5.57;;;18.30;99.90;;;;;;5191703;28;20223;-45
2023/04/23 11:20:23;;;;;;;15.57;11.80;;;18.00;99.90;;;;;;5181502;28;20500;-46
2023/04/23 11:22:53;;;;;;;11.63;7.87;;;17.90;99.90;;;;;;5183508;28;20470;-45
2023/04/23 11:25:26;;;;;;;8.10;7.10;;;17.80;99.90;;;;;;5175038;28;20525;-44
2023/04/23 11:28:00;;;;;;;12.83;10.00;;;18.10;99.90;;;;;;5180582;28;20200;-45
2023/04/23 11:30:31;;;;;;;12.73;9.33;;;18.20;99.90;;;;;;5178838;28;20483;-45
2023/04/23 11:33:03;;;;;;;8.77;7.07;;;18.50;99.90;;;;;;5175926;28;20439;-47
2023/04/23 11:35:39;;;;;;;9.60;7.47;;;18.50;99.90;;;;;;5171617;28;20443;-47
2023/04/23 11:38:10;;;;;;;8.47;7.57;;;18.50;99.90;;;;;;5178493;28;20454;-46
2023/04/23 11:40:41;;;;;;;10.83;8.07;;;18.40;99.90;;;;;;5172389;28;20465;-47
2023/04/23 11:43:17;;;;;;;12.10;10.47;;;18.20;99.90;;;;;;5176939;28;20288;-46
2023/04/23 11:45:49;;;;;;;12.50;8.50;;;18.20;99.90;;;;;;5177434;28;20497;-46
2023/04/23 11:48:20;;;;;;;19.10;10.40;;;18.10;99.90;;;;;;5174386;28;21180;-45
2023/04/23 11:50:51;;;;;;;7.70;6.90;;;18.40;99.90;;;;;;5169881;28;20551;-46
2023/04/23 11:53:22;;;;;;;12.57;9.23;;;18.30;99.90;;;;;;5170497;28;20537;-48
2023/04/23 11:55:53;;;;;;;11.63;9.13;;;18.10;99.90;;;;;;5173705;28;20439;-47
2023/04/23 11:58:24;;;;;;;13.93;10.80;;;18.00;99.90;;;;;;5182048;28;20591;-57
2023/04/23 12:01:01;;;;;;;18.73;11.63;;;18.30;99.90;;;;;;5176743;28;20211;-47
2023/04/23 12:03:31;;;;;;;10.40;6.97;;;18.50;99.90;;;;;;5177447;28;20180;-46
2023/04/23 12:06:02;;;;;;;8.97;7.40;;;18.50;99.90;;;;;;5170179;28;20504;-48
2023/04/23 12:08:34;;;;;;;9.83;8.50;;;18.50;99.90;;;;;;5177054;28;20220;-46
2023/04/23 12:11:05;;;;;;;13.67;7.47;;;18.30;99.90;;;;;;5179272;28;20553;-46
2023/04/23 12:13:39;;;;;;;10.40;7.13;;;18.40;99.90;;;;;;5179266;28;20427;-46
2023/04/23 12:16:09;;;;;;;7.07;6.37;;;18.10;99.90;;;;;;5176587;28;20451;-46
2023/04/23 12:18:43;;;;;;;7.90;5.13;;;18.10;99.90;;;;;;5179594;28;20470;-47
2023/04/23 12:21:13;;;;;;;6.00;5.40;;;18.20;99.90;;;;;;5177051;28;20235;-46
2023/04/23 12:23:44;;;;;;;12.73;9.07;;;18.40;99.90;;;;;;5175041;28;20439;-48
2023/04/23 12:26:15;;;;;;;6.50;5.90;;;18.80;99.90;;;;;;5179313;28;20203;-46
2023/04/23 12:28:48;;;;;;;7.77;4.93;;;19.00;99.90;;;;;;5181670;28;20236;-45
2023/04/23 12:31:24;;;;;;;6.50;5.90;;;19.20;99.90;;;;;;5183734;28;20184;-47
2023/04/23 12:34:06;;;;;;;5.30;4.83;;;18.90;99.90;;;;;;5181589;28;20532;-47
2023/04/23 12:36:38;;;;;;;6.77;6.17;;;18.90;99.90;;;;;;5180296;28;20435;-46
2023/04/23 12:39:29;;;;;;;7.03;4.87;;;19.20;99.90;;;;;;5178431;28;20819;-46
2023/04/23 12:42:03;;;;;;;6.63;5.37;;;19.60;99.90;;;;;;5182480;28;20450;-45
2023/04/23 12:44:35;;;;;;;8.80;7.10;;;19.70;98.90;;;;;;5180718;28;20799;-45
2023/04/23 12:47:07;;;;;;;3.57;3.37;;;20.00;97.70;;;;;;5180394;28;20968;-46
2023/04/23 12:49:39;;;;;;;4.73;4.33;;;19.70;93.20;;;;;;5180395;28;20531;-47
2023/04/23 12:52:11;;;;;;;8.30;6.37;;;19.80;93.50;;;;;;5181755;28;20454;-46
2023/04/23 12:54:43;;;;;;;6.30;5.70;;;19.50;94.20;;;;;;5181844;28;20442;-48
2023/04/23 12:57:14;;;;;;;4.40;4.10;;;19.20;94.50;;;;;;5193824;28;20472;-45
2023/04/23 12:59:45;;;;;;;3.83;2.97;;;19.40;94.90;;;;;;5185449;28;20445;-45
2023/04/23 13:02:15;;;;;;;3.17;3.03;;;19.60;93.20;;;;;;5185909;28;20439;-46
2023/04/23 13:04:46;;;;;;;3.20;2.90;;;19.70;90.30;;;;;;5185367;28;20184;-46